createdAt,value
2018-07-20T00:02:25.491Z,67.79
2018-07-20T00:05:29.568Z,68.19
2018-07-20T00:08:33.927Z,67.91
2018-07-20T00:11:38.566Z,68.29
2018-07-20T00:14:43.313Z,68.65
2018-07-20T00:17:48.129Z,68.35
2018-07-20T00:20:53.118Z,68.90
2018-07-20T00:23:57.629Z,68.83
2018-07-20T00:27:02.077Z,68.67
2018-07-20T00:30:06.866Z,69.48
2018-07-20T00:33:11.273Z,69.71
2018-07-20T00:36:16.569Z,69.38
2018-07-20T00:39:21.393Z,69.94
2018-07-20T00:42:25.782Z,69.52
2018-07-20T00:45:29.793Z,69.93
2018-07-20T00:48:34.078Z,70.28
2018-07-20T00:51:38.458Z,70.62
2018-07-20T00:54:42.784Z,70.22
2018-07-20T00:57:47.112Z,70.49
2018-07-20T01:00:51.787Z,70.50
2018-07-20T01:03:55.849Z,70.53
2018-07-20T01:07:00.166Z,70.61
2018-07-20T01:10:04.469Z,70.87
2018-07-20T01:13:08.771Z,70.98
2018-07-20T01:16:13.133Z,70.98
2018-07-20T01:19:17.458Z,71.19
2018-07-20T01:22:22.202Z,70.92
2018-07-20T01:25:26.757Z,71.37
2018-07-20T01:28:31.068Z,71.36
2018-07-20T01:31:35.630Z,71.64
2018-07-20T01:34:40.160Z,71.99
2018-07-20T01:37:44.438Z,71.55
2018-07-20T01:40:48.783Z,71.90
2018-07-20T01:43:53.104Z,72.09
2018-07-20T01:46:57.435Z,71.77
2018-07-20T01:50:01.686Z,72.32
2018-07-20T01:53:05.934Z,72.93
2018-07-20T01:56:10.297Z,72.83
2018-07-20T01:59:14.571Z,72.44
2018-07-20T02:02:18.838Z,73.00
2018-07-20T02:05:23.104Z,73.48
2018-07-20T02:08:27.400Z,73.17
2018-07-20T02:11:31.968Z,73.40
2018-07-20T02:14:36.261Z,73.54
2018-07-20T02:17:40.831Z,73.85
2018-07-20T02:20:45.150Z,74.09
2018-07-20T02:23:49.444Z,73.80
2018-07-20T02:26:54.001Z,74.07
2018-07-20T02:29:58.279Z,74.06
2018-07-20T02:33:02.558Z,74.20
2018-07-20T02:36:06.891Z,74.00
2018-07-20T02:39:13.211Z,73.93
2018-07-20T02:42:17.497Z,74.38
2018-07-20T02:45:21.536Z,74.62
2018-07-20T02:48:26.363Z,74.65
2018-07-20T02:51:30.662Z,74.75
2018-07-20T02:54:35.085Z,74.78
2018-07-20T02:57:39.364Z,75.39
2018-07-20T03:00:43.742Z,75.13
2018-07-20T03:03:48.009Z,74.66
2018-07-20T03:06:52.342Z,75.17
2018-07-20T03:09:56.617Z,75.12
2018-07-20T03:13:00.945Z,75.69
2018-07-20T03:16:05.340Z,75.44
2018-07-20T03:19:09.973Z,75.70
2018-07-20T03:22:14.446Z,75.08
2018-07-20T03:25:18.772Z,75.76
2018-07-20T03:28:23.092Z,75.58
2018-07-20T03:31:27.684Z,76.03
2018-07-20T03:34:32.009Z,75.92
2018-07-20T03:37:36.511Z,76.19
2018-07-20T03:40:41.130Z,76.06
2018-07-20T03:43:45.415Z,75.98
2018-07-20T03:46:49.686Z,76.03
2018-07-20T03:49:54.523Z,76.21
2018-07-20T03:52:58.870Z,76.37
2018-07-20T03:56:03.253Z,76.04
2018-07-20T03:59:07.455Z,76.01
2018-07-20T04:02:11.762Z,76.01
2018-07-20T04:05:16.086Z,76.33
2018-07-20T04:08:20.396Z,75.66
2018-07-20T04:11:24.936Z,75.19
2018-07-20T04:14:29.281Z,75.00
2018-07-20T04:17:38.949Z,75.52
2018-07-20T04:20:43.283Z,75.26
2018-07-20T04:23:47.563Z,75.12
2018-07-20T04:26:52.494Z,75.30
2018-07-20T04:29:56.890Z,74.51
2018-07-20T04:33:02.273Z,74.48
2018-07-20T04:36:06.912Z,73.29
2018-07-20T04:39:13.510Z,73.59
2018-07-20T04:42:18.863Z,72.51
2018-07-20T04:45:23.161Z,72.45
2018-07-20T04:48:27.706Z,73.11
2018-07-20T04:51:32.348Z,71.75
2018-07-20T04:54:36.730Z,72.67
2018-07-20T04:57:41.214Z,72.00
2018-07-20T05:00:45.619Z,71.94
2018-07-20T05:03:50.587Z,71.75
2018-07-20T05:06:55.741Z,70.83
2018-07-20T05:10:00.168Z,70.12
2018-07-20T05:13:18.060Z,69.82
2018-07-20T05:16:22.377Z,69.41
2018-07-20T05:19:26.785Z,69.50
2018-07-20T05:22:31.146Z,68.89
2018-07-20T05:25:35.653Z,68.18
2018-07-20T05:28:39.980Z,68.25
2018-07-20T05:31:44.258Z,68.72
2018-07-20T05:34:49.106Z,68.25
2018-07-20T05:37:53.864Z,67.98
2018-07-20T05:40:58.361Z,66.98
2018-07-20T05:44:02.745Z,66.44
2018-07-20T05:47:07.658Z,66.68
2018-07-20T05:50:12.018Z,66.35
2018-07-20T05:53:16.423Z,64.36
2018-07-20T05:56:20.762Z,62.10
2018-07-20T05:59:25.565Z,61.62
2018-07-20T06:02:30.173Z,60.46
2018-07-20T06:05:34.992Z,57.44
2018-07-20T06:08:39.429Z,54.51
2018-07-20T06:11:43.690Z,50.75
2018-07-20T06:14:47.953Z,48.38
2018-07-20T06:17:52.380Z,45.95
2018-07-20T06:20:56.654Z,44.81
2018-07-20T06:24:01.855Z,43.93
2018-07-20T06:27:06.185Z,42.19
2018-07-20T06:30:10.506Z,41.07
2018-07-20T06:33:16.772Z,41.71
2018-07-20T06:36:21.277Z,41.29
2018-07-20T06:39:25.860Z,39.12
2018-07-20T06:42:30.249Z,37.87
2018-07-20T06:45:34.984Z,40.22
2018-07-20T06:48:39.262Z,38.85
2018-07-20T06:51:43.779Z,37.01
2018-07-20T06:54:48.313Z,36.75
2018-07-20T06:57:53.175Z,39.11
2018-07-20T07:00:57.784Z,38.49
2018-07-20T07:04:02.375Z,39.56
2018-07-20T07:07:07.918Z,38.61
2018-07-20T07:10:12.276Z,38.62
2018-07-20T07:13:16.782Z,37.83
2018-07-20T07:16:21.140Z,39.00
2018-07-20T07:19:25.529Z,40.60
2018-07-20T07:22:29.872Z,39.29
2018-07-20T07:25:34.268Z,38.30
2018-07-20T07:28:38.659Z,36.32
2018-07-20T07:31:42.985Z,39.47
2018-07-20T07:34:47.806Z,37.18
2018-07-20T07:37:52.351Z,38.88
2018-07-20T07:40:56.685Z,38.36
2018-07-20T07:44:01.001Z,39.83
2018-07-20T07:47:05.481Z,39.19
2018-07-20T07:50:10.149Z,37.10
2018-07-20T07:53:14.452Z,36.56
2018-07-20T07:56:18.985Z,38.70
2018-07-20T07:59:23.863Z,38.24
2018-07-20T08:02:28.129Z,39.22
2018-07-20T08:05:32.428Z,38.82
2018-07-20T08:08:36.734Z,40.18
2018-07-20T08:11:41.506Z,37.49
2018-07-20T08:14:46.358Z,37.02
2018-07-20T08:17:50.713Z,37.40
2018-07-20T08:20:55.186Z,39.13
2018-07-20T08:23:59.609Z,38.14
2018-07-20T08:27:03.886Z,39.86
2018-07-20T08:30:08.154Z,40.37
2018-07-20T08:33:12.465Z,41.89
2018-07-20T08:36:16.945Z,40.96
2018-07-20T08:39:21.229Z,40.72
2018-07-20T08:42:25.933Z,41.46
2018-07-20T08:45:30.321Z,38.01
2018-07-20T08:48:34.838Z,39.00
2018-07-20T08:51:39.301Z,38.40
2018-07-20T08:54:43.578Z,39.11
2018-07-20T08:57:48.057Z,38.22
2018-07-20T09:00:52.410Z,40.69
2018-07-20T09:03:56.666Z,37.30
2018-07-20T09:07:01.261Z,35.21
2018-07-20T09:10:05.893Z,36.58
2018-07-20T09:13:10.231Z,34.39
2018-07-20T09:16:14.997Z,35.97
2018-07-20T09:19:19.393Z,29.75
2018-07-20T09:22:23.861Z,33.87
2018-07-20T09:25:28.181Z,34.17
2018-07-20T09:28:32.777Z,33.75
2018-07-20T09:31:37.202Z,33.09
2018-07-20T09:34:41.578Z,33.51
2018-07-20T09:37:46.096Z,34.09
2018-07-20T09:40:50.375Z,34.94
2018-07-20T09:43:54.670Z,32.77
2018-07-20T09:46:58.979Z,32.84
2018-07-20T09:50:03.410Z,31.40
2018-07-20T09:53:07.818Z,33.35
2018-07-20T09:56:12.220Z,35.44
2018-07-20T09:59:16.704Z,34.25
2018-07-20T10:02:21.182Z,30.83
2018-07-20T10:05:25.551Z,31.55
2018-07-20T10:08:30.116Z,32.58
2018-07-20T10:11:35.672Z,31.38
2018-07-20T10:14:39.888Z,34.32
2018-07-20T10:17:44.135Z,29.68
2018-07-20T10:20:48.426Z,30.56
2018-07-20T10:23:52.866Z,31.88
2018-07-20T10:26:57.176Z,31.04
2018-07-20T10:30:01.879Z,30.41
2018-07-20T10:33:06.242Z,30.55
2018-07-20T10:36:10.565Z,29.94
2018-07-20T10:39:14.645Z,29.97
2018-07-20T10:42:19.224Z,29.97
2018-07-20T10:45:23.697Z,31.53
2018-07-20T10:48:28.181Z,31.73
2018-07-20T10:51:32.476Z,30.71
2018-07-20T10:54:36.802Z,32.12
2018-07-20T10:57:41.049Z,29.71
2018-07-20T11:00:45.989Z,30.75
2018-07-20T11:03:50.296Z,30.13
2018-07-20T11:06:54.576Z,30.30
2018-07-20T11:09:58.919Z,30.67
2018-07-20T11:13:03.313Z,30.97
2018-07-20T11:16:07.769Z,30.40
2018-07-20T11:19:12.021Z,30.36
2018-07-20T11:22:16.478Z,31.23
2018-07-20T11:25:20.740Z,31.20
2018-07-20T11:28:25.185Z,29.27
2018-07-20T11:31:29.582Z,30.59
2018-07-20T11:34:33.960Z,29.49
2018-07-20T11:37:42.297Z,29.20
2018-07-20T11:40:46.845Z,30.31
2018-07-20T11:43:51.368Z,30.41
2018-07-20T11:46:55.818Z,28.70
2018-07-20T11:50:00.209Z,29.13
2018-07-20T11:53:05.090Z,30.55
2018-07-20T11:56:09.471Z,29.49
2018-07-20T11:59:14.279Z,30.56
2018-07-20T12:02:18.548Z,31.58
2018-07-20T12:05:23.369Z,30.11
2018-07-20T12:08:27.722Z,30.68
2018-07-20T12:11:32.577Z,30.15
2018-07-20T12:14:36.830Z,29.05
2018-07-20T12:17:41.291Z,28.72
2018-07-20T12:20:46.013Z,29.10
2018-07-20T12:23:50.287Z,27.67
2018-07-20T12:26:54.721Z,29.57
2018-07-20T12:29:59.366Z,27.60
2018-07-20T12:33:04.078Z,27.96
2018-07-20T12:36:08.416Z,29.36
2018-07-20T12:39:13.060Z,27.93
2018-07-20T12:42:17.340Z,30.13
2018-07-20T12:45:21.908Z,29.39
2018-07-20T12:48:26.301Z,28.75
2018-07-20T12:51:30.729Z,30.39
2018-07-20T12:54:35.292Z,29.27
2018-07-20T12:57:39.766Z,29.87
2018-07-20T13:00:44.442Z,30.09
2018-07-20T13:03:49.328Z,29.75
2018-07-20T13:06:53.762Z,29.99
2018-07-20T13:09:58.281Z,29.37
2018-07-20T13:13:02.535Z,30.76
2018-07-20T13:16:06.976Z,29.76
2018-07-20T13:19:11.241Z,29.46
2018-07-20T13:22:15.521Z,29.63
2018-07-20T13:25:19.794Z,30.24
2018-07-20T13:28:24.085Z,29.74
2018-07-20T13:31:28.381Z,29.46
2018-07-20T13:34:32.737Z,29.05
2018-07-20T13:37:37.285Z,27.65
2018-07-20T13:40:41.882Z,28.03
2018-07-20T13:43:46.137Z,29.40
2018-07-20T13:46:50.430Z,28.95
2018-07-20T13:49:54.984Z,28.86
2018-07-20T13:52:59.669Z,28.89
2018-07-20T13:56:03.982Z,29.02
2018-07-20T13:59:09.241Z,27.56
2018-07-20T14:02:19.344Z,27.82
2018-07-20T14:05:23.950Z,28.19
2018-07-20T14:08:28.412Z,28.74
2018-07-20T14:11:33.186Z,30.50
2018-07-20T14:14:37.646Z,29.79
2018-07-20T14:17:42.754Z,30.66
2018-07-20T14:20:47.418Z,29.82
2018-07-20T14:23:51.978Z,30.24
2018-07-20T14:26:56.096Z,29.91
2018-07-20T14:30:00.451Z,31.28
2018-07-20T14:33:04.894Z,30.49
2018-07-20T14:36:09.232Z,29.77
2018-07-20T14:39:14.906Z,30.43
2018-07-20T14:42:19.872Z,30.16
2018-07-20T14:45:27.977Z,29.18
2018-07-20T14:48:34.868Z,29.98
2018-07-20T14:51:40.520Z,30.50
2018-07-20T14:54:47.759Z,30.60
2018-07-20T14:57:55.608Z,32.25
2018-07-20T15:01:00.969Z,31.94
2018-07-20T15:04:06.367Z,31.09
2018-07-20T15:07:11.301Z,31.98
2018-07-20T15:10:16.801Z,31.42
2018-07-20T15:13:21.304Z,31.34
2018-07-20T15:16:25.814Z,31.12
2018-07-20T15:19:30.235Z,30.17
2018-07-20T15:22:35.439Z,30.61
2018-07-20T15:25:39.773Z,29.98
2018-07-20T15:28:44.175Z,30.50
2018-07-20T15:31:49.370Z,30.53
2018-07-20T15:34:53.835Z,31.78
2018-07-20T15:37:58.952Z,31.53
2018-07-20T15:41:04.095Z,31.73
2018-07-20T15:44:08.580Z,31.79
2018-07-20T15:47:13.362Z,31.01
2018-07-20T15:50:21.357Z,32.04
2018-07-20T15:53:36.269Z,31.87
2018-07-20T15:56:34.513Z,31.83
2018-07-20T15:59:39.573Z,30.59
2018-07-20T16:02:44.858Z,30.74
2018-07-20T16:05:55.129Z,31.33
2018-07-20T16:09:01.891Z,31.17
2018-07-20T16:12:09.161Z,30.63
2018-07-20T16:15:17.518Z,30.62
2018-07-20T16:18:24.988Z,31.61
2018-07-20T16:21:36.588Z,30.79
2018-07-20T16:24:51.165Z,31.26
2018-07-20T16:27:56.717Z,31.14
2018-07-20T16:31:05.644Z,30.86
2018-07-20T16:34:14.913Z,31.77
2018-07-20T16:37:25.830Z,30.48
2018-07-20T16:40:33.712Z,31.41
2018-07-20T16:43:44.116Z,30.89
2018-07-20T16:46:56.030Z,31.43
2018-07-20T16:50:05.266Z,32.04
2018-07-20T16:53:15.935Z,31.62
2018-07-20T16:56:21.245Z,30.45
2018-07-20T16:59:31.029Z,30.48
2018-07-20T17:02:40.805Z,30.21
2018-07-20T17:05:49.607Z,30.83
2018-07-20T17:09:02.217Z,30.39
2018-07-20T17:12:09.699Z,31.65
2018-07-20T17:15:13.952Z,32.12
2018-07-20T17:18:18.368Z,31.98
2018-07-20T17:21:22.806Z,31.94
2018-07-20T17:24:27.096Z,32.60
2018-07-20T17:27:31.476Z,33.67
2018-07-20T17:30:35.921Z,33.57
2018-07-20T17:33:40.504Z,33.96
2018-07-20T17:36:44.790Z,33.90
2018-07-20T17:39:49.265Z,34.43
2018-07-20T17:42:53.602Z,34.81
2018-07-20T17:45:57.940Z,34.31
2018-07-20T17:49:02.360Z,34.40
2018-07-20T17:52:06.686Z,35.72
2018-07-20T17:55:10.956Z,35.61
2018-07-20T17:58:15.395Z,34.66
2018-07-20T18:01:19.735Z,35.58
2018-07-20T18:04:24.627Z,35.13
2018-07-20T18:07:28.998Z,36.06
2018-07-20T18:10:33.316Z,36.51
2018-07-20T18:13:37.565Z,36.83
2018-07-20T18:16:41.989Z,37.56
2018-07-20T18:19:46.357Z,37.52
2018-07-20T18:22:50.785Z,38.63
2018-07-20T18:25:55.073Z,38.15
2018-07-20T18:28:59.325Z,38.46
2018-07-20T18:32:03.653Z,38.65
2018-07-20T18:35:08.046Z,38.48
2018-07-20T18:38:12.502Z,39.58
2018-07-20T18:41:16.785Z,39.88
2018-07-20T18:44:21.116Z,40.16
2018-07-20T18:47:25.172Z,40.97
2018-07-20T18:50:29.749Z,42.67
2018-07-20T18:53:34.107Z,42.90
2018-07-20T18:56:38.368Z,44.49
2018-07-20T18:59:42.730Z,43.34
2018-07-20T19:02:47.118Z,44.21
2018-07-20T19:05:51.410Z,44.05
2018-07-20T19:08:55.816Z,44.93
2018-07-20T19:12:00.136Z,45.48
2018-07-20T19:15:05.878Z,46.02
2018-07-20T19:18:10.390Z,46.43
2018-07-20T19:21:14.650Z,46.46
2018-07-20T19:24:18.966Z,47.02
2018-07-20T19:27:23.251Z,47.09
2018-07-20T19:30:27.548Z,47.27
2018-07-20T19:33:32.133Z,47.79
2018-07-20T19:36:36.383Z,47.53
2018-07-20T19:39:40.668Z,48.29
2018-07-20T19:42:45.190Z,49.47
2018-07-20T19:45:49.583Z,49.67
2018-07-20T19:48:53.933Z,49.88
2018-07-20T19:51:58.141Z,49.92
2018-07-20T19:55:02.526Z,50.63
2018-07-20T19:58:07.018Z,49.69
2018-07-20T20:01:11.453Z,49.63
2018-07-20T20:04:15.797Z,50.14
2018-07-20T20:07:20.277Z,50.90
2018-07-20T20:10:24.489Z,51.04
2018-07-20T20:13:28.899Z,50.90
2018-07-20T20:16:36.042Z,52.27
2018-07-20T20:19:40.573Z,51.38
2018-07-20T20:22:45.684Z,51.72
2018-07-20T20:25:49.963Z,51.06
2018-07-20T20:28:54.276Z,50.34
2018-07-20T20:31:58.741Z,51.25
2018-07-20T20:35:02.893Z,51.56
2018-07-20T20:38:07.479Z,51.21
2018-07-20T20:41:12.143Z,51.07
2018-07-20T20:44:16.540Z,51.49
2018-07-20T20:47:20.883Z,52.16
2018-07-20T20:50:25.202Z,52.15
2018-07-20T20:53:29.529Z,52.67
2018-07-20T20:56:33.853Z,53.10
2018-07-20T20:59:38.474Z,52.74
2018-07-20T21:02:42.792Z,53.28
2018-07-20T21:05:46.972Z,53.08
2018-07-20T21:08:51.535Z,53.35
2018-07-20T21:11:56.376Z,54.25
2018-07-20T21:15:00.669Z,54.48
2018-07-20T21:18:05.539Z,53.41
2018-07-20T21:21:09.966Z,54.12
2018-07-20T21:24:14.496Z,53.20
2018-07-20T21:27:19.225Z,53.47
2018-07-20T21:30:24.093Z,54.18
2018-07-20T21:33:28.876Z,56.40
2018-07-20T21:36:32.899Z,58.00
2018-07-20T21:39:38.856Z,59.20
2018-07-20T21:42:43.096Z,61.78
2018-07-20T21:45:47.654Z,63.35
2018-07-20T21:48:52.047Z,67.41
2018-07-20T21:51:56.327Z,68.42
2018-07-20T21:55:01.038Z,71.18
2018-07-20T21:58:06.059Z,71.40
2018-07-20T22:01:10.710Z,71.72
2018-07-20T22:04:15.330Z,72.52
2018-07-20T22:07:19.669Z,72.58
2018-07-20T22:10:24.128Z,72.62
2018-07-20T22:13:28.884Z,72.62
2018-07-20T22:16:33.225Z,72.42
2018-07-20T22:19:46.683Z,72.89
2018-07-20T22:23:12.570Z,73.66
2018-07-20T22:26:17.023Z,73.24
2018-07-20T22:29:21.509Z,73.07
2018-07-20T22:32:25.854Z,73.28
2018-07-20T22:35:30.528Z,73.20
2018-07-20T22:38:34.972Z,73.91
2018-07-20T22:41:39.427Z,73.89
2018-07-20T22:44:43.956Z,73.93
2018-07-20T22:47:48.441Z,74.61
2018-07-20T22:50:53.006Z,75.12
2018-07-20T22:53:57.589Z,74.21
2018-07-20T22:57:02.021Z,74.67
2018-07-20T23:00:06.584Z,74.43
2018-07-20T23:03:11.086Z,73.56
2018-07-20T23:06:15.594Z,73.86
2018-07-20T23:09:19.928Z,73.18
2018-07-20T23:12:24.237Z,72.17
2018-07-20T23:15:29.087Z,72.01
2018-07-20T23:18:33.443Z,71.83
2018-07-20T23:21:40.174Z,71.57
2018-07-20T23:24:44.641Z,70.84
2018-07-20T23:27:49.009Z,71.92
2018-07-20T23:30:53.437Z,71.26
2018-07-20T23:33:57.728Z,70.83
2018-07-20T23:37:02.016Z,70.91
2018-07-20T23:40:06.716Z,70.97
2018-07-20T23:43:11.114Z,70.43
2018-07-20T23:46:15.144Z,69.97
2018-07-20T23:49:19.429Z,69.89
2018-07-20T23:52:23.887Z,68.92
2018-07-20T23:55:28.412Z,68.91
2018-07-20T23:58:32.742Z,68.90
